Time;durP1;ratioP1;P1;durP2;ratioP2;P2;SDS_P1;SDS_P2;PMS_P1;PMS_P2;Temp;Humidity;BMP_temperature;BMP_pressure;BME280_temperature;BME280_humidity;BME280_pressure;Samples;Min_cycle;Max_cycle;Signal;HPM_P1;HPM_P2
2023/05/04 00:00:48;;;;;;;6.50;2.80;;;8.30;99.90;;;;;;7402962;19;19919;-80
2023/05/04 00:03:17;;;;;;;5.45;2.72;;;8.30;99.90;;;;;;7404679;19;19954;-81
2023/05/04 00:05:46;;;;;;;5.15;2.83;;;8.20;99.90;;;;;;7405176;19;19922;-81
2023/05/04 00:08:15;;;;;;;6.22;3.58;;;8.30;99.90;;;;;;7401592;19;19926;-80
2023/05/04 00:10:47;;;;;;;5.18;3.25;;;8.30;99.90;;;;;;7403668;19;19919;-80
2023/05/04 00:13:16;;;;;;;7.22;3.50;;;8.20;99.90;;;;;;7402341;19;20241;-80
2023/05/04 00:15:45;;;;;;;5.95;3.20;;;8.20;99.90;;;;;;7401049;19;19922;-80
2023/05/04 00:18:14;;;;;;;5.55;3.35;;;8.10;99.90;;;;;;7401644;19;19919;-80
2023/05/04 00:20:43;;;;;;;5.22;3.05;;;8.10;99.90;;;;;;7401802;19;19950;-80
2023/05/04 00:23:12;;;;;;;5.25;2.78;;;8.10;99.90;;;;;;7405993;19;19954;-80
2023/05/04 00:25:40;;;;;;;5.82;2.95;;;7.90;99.90;;;;;;7403826;19;19919;-80
2023/05/04 00:28:12;;;;;;;5.78;3.20;;;9.00;99.90;;;;;;7402040;19;19918;-80
2023/05/04 00:30:41;;;;;;;4.38;2.80;;;8.00;99.90;;;;;;7403094;19;19914;-80
2023/05/04 00:33:10;;;;;;;3.70;2.90;;;8.00;99.90;;;;;;7402295;19;19974;-80
2023/05/04 00:35:39;;;;;;;5.93;3.17;;;8.00;99.90;;;;;;7401821;19;20371;-79
2023/05/04 00:38:07;;;;;;;11.88;3.60;;;7.90;99.90;;;;;;7404089;19;19925;-80
2023/05/04 00:40:36;;;;;;;7.40;3.28;;;8.30;99.90;;;;;;7402195;19;19925;-79
2023/05/04 00:43:05;;;;;;;7.97;3.38;;;7.90;99.90;;;;;;7402395;19;19929;-79
2023/05/04 00:45:37;;;;;;;9.10;3.60;;;8.00;99.90;;;;;;7401659;19;19923;-79
2023/05/04 00:48:07;;;;;;;4.78;2.88;;;8.00;99.90;;;;;;7402011;19;19922;-79
2023/05/04 00:50:37;;;;;;;5.55;3.35;;;7.70;99.90;;;;;;7402903;19;19919;-79
2023/05/04 00:53:10;;;;;;;10.85;3.53;;;7.80;99.90;;;;;;7400955;19;19926;-79
2023/05/04 00:55:40;;;;;;;4.82;3.00;;;7.80;99.90;;;;;;7401271;19;19930;-79
2023/05/04 00:58:10;;;;;;;4.90;3.00;;;7.70;99.90;;;;;;7401226;19;19922;-79
2023/05/04 01:00:41;;;;;;;4.82;3.00;;;7.80;99.90;;;;;;7400751;19;20597;-80
2023/05/04 01:03:11;;;;;;;5.60;2.90;;;8.20;99.90;;;;;;7402602;19;19929;-79
2023/05/04 01:05:44;;;;;;;4.32;2.95;;;8.00;99.90;;;;;;7398592;19;19930;-79
2023/05/04 01:08:19;;;;;;;6.32;2.97;;;7.40;99.90;;;;;;7400832;19;19915;-78
2023/05/04 01:10:55;;;;;;;6.20;3.13;;;7.50;99.90;;;;;;7400463;19;19918;-78
2023/05/04 01:13:26;;;;;;;7.18;2.95;;;7.70;99.90;;;;;;7402813;19;19922;-79
2023/05/04 01:15:58;;;;;;;5.13;3.38;;;7.50;99.90;;;;;;7397800;19;19947;-79
2023/05/04 01:18:27;;;;;;;9.50;3.58;;;7.50;99.90;;;;;;7399910;19;19933;-79
2023/05/04 01:20:56;;;;;;;5.80;3.15;;;7.40;99.90;;;;;;7396956;19;20349;-79
2023/05/04 01:23:27;;;;;;;7.05;3.00;;;7.40;99.90;;;;;;7401818;19;20332;-79
2023/05/04 01:26:02;;;;;;;5.93;3.10;;;7.30;99.90;;;;;;7398071;19;19931;-79
2023/05/04 01:28:40;;;;;;;8.23;3.95;;;7.40;99.90;;;;;;7398563;19;19918;-79
2023/05/04 01:31:11;;;;;;;7.78;3.30;;;7.40;99.90;;;;;;7400914;19;19926;-79
2023/05/04 01:33:40;;;;;;;6.38;3.05;;;7.20;99.90;;;;;;7404100;19;19929;-79
2023/05/04 01:36:10;;;;;;;7.80;3.47;;;7.20;99.90;;;;;;7406902;19;20264;-79
2023/05/04 01:38:43;;;;;;;6.90;3.60;;;7.30;99.90;;;;;;7405308;19;19922;-79
2023/05/04 01:41:12;;;;;;;6.95;3.83;;;7.20;99.90;;;;;;7405691;19;20136;-79
2023/05/04 01:43:41;;;;;;;6.10;3.20;;;7.20;99.90;;;;;;7407756;19;20470;-79
2023/05/04 01:46:10;;;;;;;6.78;3.35;;;7.10;99.90;;;;;;7405773;19;20440;-79
2023/05/04 01:48:39;;;;;;;6.25;2.92;;;7.20;99.90;;;;;;7406101;19;19922;-79
2023/05/04 01:51:08;;;;;;;9.43;3.88;;;7.20;99.90;;;;;;7405563;19;19939;-79
2023/05/04 01:53:37;;;;;;;6.82;3.90;;;7.30;99.90;;;;;;7405840;19;19918;-79
2023/05/04 01:56:09;;;;;;;6.32;3.65;;;7.60;99.90;;;;;;7406303;19;20018;-79
2023/05/04 01:58:38;;;;;;;6.20;3.58;;;7.00;99.90;;;;;;7406300;19;20022;-79
2023/05/04 02:01:07;;;;;;;5.43;3.10;;;7.10;99.90;;;;;;7405754;19;20430;-79
2023/05/04 02:03:36;;;;;;;8.70;3.40;;;7.20;99.90;;;;;;7407631;19;19942;-79
2023/05/04 02:06:05;;;;;;;7.80;3.55;;;7.10;99.90;;;;;;7405605;19;19922;-79
2023/05/04 02:08:34;;;;;;;6.85;3.40;;;6.90;99.90;;;;;;7406367;19;19927;-79
2023/05/04 02:11:03;;;;;;;7.00;3.67;;;7.00;99.90;;;;;;7406175;19;19923;-79
2023/05/04 02:13:35;;;;;;;7.60;4.05;;;7.50;99.90;;;;;;7404728;19;19926;-78
2023/05/04 02:16:04;;;;;;;6.75;3.60;;;7.10;99.90;;;;;;7404509;19;20333;-79
2023/05/04 02:18:33;;;;;;;8.57;4.00;;;8.20;99.90;;;;;;7406912;19;19933;-79
2023/05/04 02:21:01;;;;;;;8.38;4.18;;;7.00;99.90;;;;;;7405784;19;19914;-79
2023/05/04 02:23:30;;;;;;;5.95;3.63;;;6.90;99.90;;;;;;7404617;19;19926;-78
2023/05/04 02:25:59;;;;;;;8.70;3.58;;;7.00;99.90;;;;;;7406583;19;20260;-79
2023/05/04 02:28:28;;;;;;;7.13;3.70;;;6.90;99.90;;;;;;7404386;19;19926;-78
2023/05/04 02:31:00;;;;;;;7.78;4.10;;;6.80;99.90;;;;;;7404187;19;19922;-79
2023/05/04 02:33:29;;;;;;;6.57;3.72;;;6.80;99.90;;;;;;7404277;19;19915;-79
2023/05/04 02:35:58;;;;;;;5.78;3.53;;;6.90;99.90;;;;;;7405344;19;19926;-80
2023/05/04 02:38:28;;;;;;;8.63;4.18;;;7.00;99.90;;;;;;7405101;19;19930;-79
2023/05/04 02:40:57;;;;;;;7.35;3.53;;;6.10;99.90;;;;;;7404873;19;19930;-79
2023/05/04 02:43:26;;;;;;;7.25;4.00;;;6.90;99.90;;;;;;7403999;19;19919;-79
2023/05/04 02:45:55;;;;;;;7.72;3.53;;;6.80;99.90;;;;;;7404595;19;19923;-79
2023/05/04 02:48:26;;;;;;;8.65;4.05;;;7.60;99.90;;;;;;7404826;19;19911;-78
2023/05/04 02:50:55;;;;;;;5.80;3.45;;;6.80;99.90;;;;;;7403373;19;19918;-79
2023/05/04 02:53:24;;;;;;;5.93;3.78;;;7.90;99.90;;;;;;7401602;19;19965;-78
2023/05/04 02:55:53;;;;;;;7.13;4.00;;;6.60;99.90;;;;;;7402830;19;19930;-79
2023/05/04 02:58:22;;;;;;;7.03;3.60;;;6.70;99.90;;;;;;7403525;19;19957;-79
2023/05/04 03:00:55;;;;;;;9.05;4.75;;;6.70;99.90;;;;;;7402028;19;19922;-79
2023/05/04 03:03:27;;;;;;;8.95;3.63;;;6.70;99.90;;;;;;7404417;19;20276;-79
2023/05/04 03:05:56;;;;;;;6.95;3.47;;;7.40;99.90;;;;;;7402800;19;19926;-79
2023/05/04 03:08:25;;;;;;;6.93;3.92;;;6.70;99.90;;;;;;7405831;19;20005;-79
2023/05/04 03:10:55;;;;;;;7.53;3.92;;;6.70;99.90;;;;;;7405418;19;19920;-79
2023/05/04 03:13:24;;;;;;;9.25;4.35;;;6.80;99.90;;;;;;7403574;19;20787;-78
2023/05/04 03:15:52;;;;;;;7.40;4.30;;;6.70;99.90;;;;;;7401987;19;19936;-78
2023/05/04 03:18:21;;;;;;;6.28;3.88;;;6.60;99.90;;;;;;7406445;19;19926;-79
2023/05/04 03:20:53;;;;;;;7.07;3.92;;;7.50;99.90;;;;;;7405350;19;19931;-79
2023/05/04 03:23:22;;;;;;;6.90;4.10;;;6.60;99.90;;;;;;7404113;19;20356;-78
2023/05/04 03:25:51;;;;;;;9.63;3.63;;;6.60;99.90;;;;;;7402747;19;19918;-79
2023/05/04 03:28:19;;;;;;;5.57;3.92;;;6.60;99.90;;;;;;7404776;19;20253;-79
2023/05/04 03:30:48;;;;;;;7.85;4.13;;;6.70;99.90;;;;;;7405209;19;19922;-79
2023/05/04 03:33:17;;;;;;;6.93;3.83;;;6.60;99.90;;;;;;7405893;19;19922;-79
2023/05/04 03:35:46;;;;;;;6.68;4.00;;;6.80;99.90;;;;;;7404442;19;19926;-79
2023/05/04 03:38:18;;;;;;;9.18;4.18;;;6.70;99.90;;;;;;7403006;19;20369;-79
2023/05/04 03:40:47;;;;;;;6.57;3.97;;;6.70;99.90;;;;;;7404568;19;20721;-79
2023/05/04 03:43:15;;;;;;;5.93;3.67;;;6.60;99.90;;;;;;7400544;19;20391;-79
2023/05/04 03:45:44;;;;;;;6.95;3.85;;;6.60;99.90;;;;;;7403694;19;19923;-78
2023/05/04 03:48:13;;;;;;;9.88;4.35;;;7.10;99.90;;;;;;7402647;19;20248;-79
2023/05/04 03:50:42;;;;;;;7.38;3.80;;;6.70;99.90;;;;;;7404925;19;20690;-79
2023/05/04 03:53:11;;;;;;;5.55;3.75;;;6.80;99.90;;;;;;7401139;19;19945;-79
2023/05/04 03:55:42;;;;;;;6.80;3.95;;;6.70;99.90;;;;;;7401941;19;20272;-79
2023/05/04 03:58:11;;;;;;;9.32;4.13;;;7.00;99.90;;;;;;7403871;19;19928;-79
2023/05/04 04:00:41;;;;;;;6.63;3.40;;;6.70;99.90;;;;;;7401961;19;19919;-79
2023/05/04 04:03:10;;;;;;;8.15;4.07;;;6.50;99.90;;;;;;7401494;19;19932;-78
2023/05/04 04:05:39;;;;;;;9.55;3.67;;;6.50;99.90;;;;;;7402073;19;19923;-79
2023/05/04 04:08:08;;;;;;;7.15;4.00;;;6.70;99.90;;;;;;7402562;19;19925;-79
2023/05/04 04:10:37;;;;;;;6.68;3.53;;;6.90;99.90;;;;;;7401945;19;19918;-79
2023/05/04 04:13:09;;;;;;;8.25;3.83;;;6.70;99.90;;;;;;7402961;19;19941;-79
2023/05/04 04:15:39;;;;;;;8.85;4.15;;;6.60;99.90;;;;;;7401955;19;19926;-79
2023/05/04 04:18:08;;;;;;;7.97;3.90;;;7.50;99.90;;;;;;7403163;19;19923;-79
2023/05/04 04:20:36;;;;;;;5.95;3.88;;;6.60;99.90;;;;;;7404358;19;20347;-79
2023/05/04 04:23:05;;;;;;;7.53;3.70;;;7.30;99.90;;;;;;7399541;19;19918;-79
2023/05/04 04:25:35;;;;;;;11.50;4.43;;;6.60;99.90;;;;;;7403179;19;19919;-79
2023/05/04 04:28:04;;;;;;;7.47;3.60;;;6.80;99.90;;;;;;7403308;19;19933;-79
2023/05/04 04:30:36;;;;;;;8.10;4.10;;;6.80;99.90;;;;;;7403416;19;19921;-79
2023/05/04 04:33:04;;;;;;;6.70;3.20;;;7.20;99.90;;;;;;7403287;19;19918;-79
2023/05/04 04:35:33;;;;;;;6.55;3.83;;;6.70;99.90;;;;;;7403603;19;19923;-79
2023/05/04 04:38:03;;;;;;;9.38;4.13;;;6.70;99.90;;;;;;7402988;19;19919;-79
2023/05/04 04:40:31;;;;;;;7.47;3.47;;;6.80;99.90;;;;;;7402730;19;19914;-80
2023/05/04 04:43:01;;;;;;;11.70;5.13;;;6.90;99.90;;;;;;7401198;19;19929;-79
2023/05/04 04:45:30;;;;;;;8.07;3.53;;;7.10;99.90;;;;;;7401663;19;19933;-79
2023/05/04 04:48:02;;;;;;;8.35;3.83;;;6.90;99.90;;;;;;7400896;19;19923;-79
2023/05/04 04:50:31;;;;;;;;;;;6.90;99.90;;;;;;7404128;19;19942;-79
2023/05/04 04:53:00;;;;;;;8.73;3.95;;;7.80;99.90;;;;;;7401618;19;20256;-79
2023/05/04 04:55:29;;;;;;;8.82;3.50;;;6.90;99.90;;;;;;7401977;19;19934;-79
2023/05/04 04:57:58;;;;;;;7.10;4.05;;;6.80;99.90;;;;;;7401464;19;19922;-79
2023/05/04 05:00:27;;;;;;;7.65;4.50;;;6.90;99.90;;;;;;7402785;19;20354;-79
2023/05/04 05:02:57;;;;;;;6.78;3.80;;;6.90;99.90;;;;;;7400800;19;19986;-78
2023/05/04 05:05:28;;;;;;;9.75;3.85;;;7.00;99.90;;;;;;7402665;19;19926;-79
2023/05/04 05:07:57;;;;;;;9.23;4.43;;;6.90;99.90;;;;;;7396867;19;19929;-79
2023/05/04 05:10:26;;;;;;;10.07;4.18;;;7.00;99.90;;;;;;7399488;19;19978;-79
2023/05/04 05:12:55;;;;;;;8.70;4.18;;;7.00;99.90;;;;;;7400854;19;19937;-78
2023/05/04 05:15:25;;;;;;;8.32;3.90;;;7.60;99.90;;;;;;7397801;19;19926;-79
2023/05/04 05:17:53;;;;;;;9.30;4.55;;;7.10;99.90;;;;;;7401214;19;19946;-79
2023/05/04 05:20:23;;;;;;;9.27;3.63;;;7.30;99.90;;;;;;7399995;19;20339;-78
2023/05/04 05:22:54;;;;;;;7.75;4.10;;;7.00;99.90;;;;;;7400525;19;19926;-78
2023/05/04 05:25:24;;;;;;;8.23;3.97;;;7.10;99.90;;;;;;7400359;19;19941;-78
2023/05/04 05:27:53;;;;;;;7.88;3.33;;;7.70;99.90;;;;;;7399016;19;20263;-79
2023/05/04 05:30:22;;;;;;;8.65;4.00;;;7.10;99.90;;;;;;7399239;19;19986;-79
2023/05/04 05:32:52;;;;;;;10.23;4.50;;;7.40;99.90;;;;;;7398995;19;19926;-79
2023/05/04 05:35:21;;;;;;;6.18;3.70;;;7.20;99.90;;;;;;7398879;19;19922;-79
2023/05/04 05:37:50;;;;;;;9.43;4.55;;;7.40;99.90;;;;;;7399543;19;19918;-79
2023/05/04 05:40:22;;;;;;;8.38;3.58;;;7.30;99.90;;;;;;7401445;19;20299;-79
2023/05/04 05:42:51;;;;;;;6.72;3.60;;;7.30;99.90;;;;;;7396141;19;19961;-78
2023/05/04 05:45:20;;;;;;;9.05;3.25;;;7.40;99.90;;;;;;7402603;19;19972;-79
2023/05/04 05:47:50;;;;;;;7.47;3.45;;;7.40;99.90;;;;;;7398802;19;20707;-79
2023/05/04 05:50:20;;;;;;;8.85;4.13;;;7.50;99.90;;;;;;7400831;19;19918;-78
2023/05/04 05:52:49;;;;;;;10.65;3.75;;;7.50;99.90;;;;;;7399450;19;20265;-79
2023/05/04 05:55:18;;;;;;;9.43;4.00;;;7.40;99.90;;;;;;7398875;19;19922;-79
2023/05/04 05:57:49;;;;;;;8.18;3.80;;;8.90;99.90;;;;;;7400302;19;19932;-78
2023/05/04 06:00:19;;;;;;;9.23;4.85;;;7.80;99.90;;;;;;7399881;19;19919;-78
2023/05/04 06:02:48;;;;;;;9.38;4.03;;;7.70;99.90;;;;;;7404243;19;19926;-76
2023/05/04 06:05:17;;;;;;;10.13;3.75;;;7.60;99.90;;;;;;7404629;19;19918;-77
2023/05/04 06:07:46;;;;;;;10.43;3.47;;;7.60;99.90;;;;;;7403541;19;19923;-76
2023/05/04 06:10:15;;;;;;;10.48;4.10;;;8.70;99.90;;;;;;7392349;19;19926;-77
2023/05/04 06:12:44;;;;;;;9.45;4.07;;;7.80;99.90;;;;;;7394646;19;19929;-80
2023/05/04 06:15:16;;;;;;;11.45;4.20;;;7.80;99.90;;;;;;7397019;19;19930;-78
2023/05/04 06:17:47;;;;;;;7.72;3.70;;;7.70;99.90;;;;;;7398225;19;19922;-81
2023/05/04 06:20:16;;;;;;;9.30;5.18;;;7.80;99.90;;;;;;7407367;19;19929;-81
2023/05/04 06:22:45;;;;;;;11.23;4.38;;;7.90;99.90;;;;;;7404425;19;19915;-80
2023/05/04 06:25:14;;;;;;;7.47;3.78;;;8.00;99.90;;;;;;7406769;19;19918;-80
2023/05/04 06:27:43;;;;;;;7.93;3.60;;;9.00;99.90;;;;;;7402585;19;19928;-79
2023/05/04 06:30:16;;;;;;;9.60;3.88;;;8.20;99.90;;;;;;7405442;19;19930;-79
2023/05/04 06:32:45;;;;;;;10.57;4.40;;;8.10;99.90;;;;;;7406147;19;20394;-81
2023/05/04 06:35:15;;;;;;;9.02;3.67;;;8.20;99.90;;;;;;7404385;19;19922;-80
2023/05/04 06:37:43;;;;;;;6.90;3.60;;;8.20;99.90;;;;;;7405870;19;19930;-80
2023/05/04 06:40:14;;;;;;;11.18;4.05;;;8.30;99.90;;;;;;7405351;19;19922;-79
2023/05/04 06:42:43;;;;;;;8.48;4.05;;;8.30;99.90;;;;;;7406278;19;19929;-80
2023/05/04 06:45:15;;;;;;;9.55;4.20;;;8.40;99.90;;;;;;7406520;19;19925;-79
2023/05/04 06:47:43;;;;;;;;;;;8.40;99.90;;;;;;7408995;19;19930;-79
2023/05/04 06:50:13;;;;;;;13.38;4.32;;;8.50;99.90;;;;;;7407503;19;19914;-79
2023/05/04 06:52:43;;;;;;;7.30;3.05;;;8.40;99.90;;;;;;7407237;19;20692;-79
2023/05/04 06:55:13;;;;;;;6.28;3.75;;;8.50;99.90;;;;;;7406010;19;19918;-80
2023/05/04 06:57:41;;;;;;;6.43;3.42;;;8.60;99.90;;;;;;7406912;19;20001;-80
2023/05/04 07:00:12;;;;;;;6.88;3.53;;;8.70;99.90;;;;;;7407748;19;19949;-80
2023/05/04 07:02:45;;;;;;;10.10;3.75;;;8.60;99.90;;;;;;7404139;19;19925;-81
2023/05/04 07:05:14;;;;;;;5.55;3.08;;;8.70;99.90;;;;;;7407797;19;19926;-80
2023/05/04 07:07:43;;;;;;;11.45;4.05;;;8.80;99.90;;;;;;7405217;19;19921;-79
2023/05/04 07:10:13;;;;;;;7.38;3.88;;;8.70;99.90;;;;;;7405278;19;19914;-80
2023/05/04 07:12:42;;;;;;;9.30;3.88;;;8.80;99.90;;;;;;7405080;19;19932;-81
2023/05/04 07:15:12;;;;;;;7.55;3.35;;;8.90;99.90;;;;;;7406129;19;19919;-80
2023/05/04 07:17:45;;;;;;;9.82;4.22;;;8.90;99.90;;;;;;7406095;19;19926;-81
2023/05/04 07:20:15;;;;;;;11.48;4.03;;;9.00;99.90;;;;;;7403073;19;19918;-80
2023/05/04 07:22:44;;;;;;;7.05;3.42;;;9.00;99.90;;;;;;7401641;19;19915;-80
2023/05/04 07:25:13;;;;;;;8.02;3.63;;;9.20;99.90;;;;;;7401322;19;19922;-81
2023/05/04 07:27:43;;;;;;;10.98;3.72;;;9.10;99.90;;;;;;7404879;19;19922;-80
2023/05/04 07:30:13;;;;;;;9.23;3.97;;;9.20;99.90;;;;;;7398672;19;19922;-80
2023/05/04 07:32:45;;;;;;;6.90;3.63;;;9.00;99.90;;;;;;7403377;19;20012;-80
2023/05/04 07:35:14;;;;;;;9.50;3.28;;;9.20;99.90;;;;;;7401814;19;19946;-80
2023/05/04 07:37:43;;;;;;;7.05;3.22;;;9.20;99.90;;;;;;7401905;19;19929;-80
2023/05/04 07:40:13;;;;;;;5.32;3.20;;;9.20;99.90;;;;;;7402808;19;19933;-80
2023/05/04 07:42:42;;;;;;;7.22;4.22;;;9.30;99.90;;;;;;7402997;19;20335;-79
2023/05/04 07:45:13;;;;;;;7.20;2.88;;;9.30;99.90;;;;;;7403989;19;19926;-79
2023/05/04 07:47:44;;;;;;;6.57;3.25;;;9.40;99.90;;;;;;7402569;19;19940;-79
2023/05/04 07:50:14;;;;;;;8.05;3.53;;;9.40;99.90;;;;;;7403452;19;20614;-80
2023/05/04 07:52:45;;;;;;;13.57;4.65;;;9.40;99.90;;;;;;7403274;19;19945;-79
2023/05/04 07:55:14;;;;;;;8.00;4.15;;;9.60;99.90;;;;;;7403653;19;19958;-79
2023/05/04 07:57:42;;;;;;;8.93;3.60;;;9.70;99.90;;;;;;7403650;19;19934;-80
2023/05/04 08:00:13;;;;;;;10.90;4.10;;;9.70;99.90;;;;;;7403391;19;19919;-80
2023/05/04 08:02:50;;;;;;;16.70;4.60;;;9.00;99.90;;;;;;7401459;19;19982;-80
2023/05/04 08:05:19;;;;;;;13.32;4.15;;;9.80;99.90;;;;;;7402467;19;20364;-78
2023/05/04 08:07:48;;;;;;;9.25;3.60;;;10.10;99.90;;;;;;7402499;19;20259;-80
2023/05/04 08:10:17;;;;;;;10.32;4.00;;;10.00;99.90;;;;;;7402475;19;19921;-79
2023/05/04 08:12:46;;;;;;;9.75;3.78;;;10.00;99.90;;;;;;7401246;19;19922;-80
2023/05/04 08:15:15;;;;;;;7.50;3.88;;;10.20;99.90;;;;;;7401434;19;19923;-80
2023/05/04 08:17:45;;;;;;;8.95;4.10;;;10.10;99.90;;;;;;7403256;19;19926;-80
2023/05/04 08:20:18;;;;;;;8.15;3.92;;;10.20;99.90;;;;;;7400069;19;20339;-79
2023/05/04 08:22:46;;;;;;;6.97;4.20;;;10.40;99.90;;;;;;7400876;19;19925;-79
2023/05/04 08:25:15;;;;;;;9.77;3.67;;;10.40;99.90;;;;;;7402064;19;19922;-79
2023/05/04 08:27:44;;;;;;;9.10;4.13;;;10.40;99.90;;;;;;7402006;19;19938;-80
2023/05/04 08:30:15;;;;;;;8.63;3.97;;;10.50;99.90;;;;;;7401610;19;20425;-81
2023/05/04 08:32:44;;;;;;;10.40;4.25;;;10.70;99.90;;;;;;7402106;19;19914;-80
2023/05/04 08:35:15;;;;;;;11.98;3.65;;;10.70;99.90;;;;;;7402326;19;19945;-80
2023/05/04 08:37:46;;;;;;;11.23;4.28;;;10.70;99.90;;;;;;7401972;19;19929;-80
2023/05/04 08:40:17;;;;;;;9.77;3.58;;;10.80;99.90;;;;;;7400844;19;19925;-78
2023/05/04 08:42:49;;;;;;;12.23;3.90;;;10.90;99.90;;;;;;7400936;19;19945;-79
2023/05/04 08:45:18;;;;;;;8.00;4.13;;;10.90;99.90;;;;;;7400819;19;19918;-80
2023/05/04 08:47:47;;;;;;;8.90;3.45;;;11.00;99.90;;;;;;7401161;19;20517;-79
2023/05/04 08:50:16;;;;;;;7.50;3.30;;;11.10;99.90;;;;;;7400224;19;19944;-80
2023/05/04 08:52:48;;;;;;;8.80;3.92;;;11.20;99.90;;;;;;7400211;19;19998;-80
2023/05/04 08:55:18;;;;;;;6.55;2.90;;;11.30;99.90;;;;;;7401891;19;20386;-80
2023/05/04 08:57:48;;;;;;;7.10;4.03;;;11.40;99.90;;;;;;7400805;19;19914;-80
2023/05/04 09:00:19;;;;;;;5.75;3.35;;;11.60;99.90;;;;;;7401229;19;19933;-80
2023/05/04 09:02:50;;;;;;;7.90;3.63;;;11.80;99.90;;;;;;7398725;19;19923;-80
2023/05/04 09:05:20;;;;;;;5.85;3.33;;;11.80;99.90;;;;;;7401355;19;19945;-80
2023/05/04 09:07:52;;;;;;;7.75;3.63;;;11.90;99.90;;;;;;7401194;19;19918;-80
2023/05/04 09:10:21;;;;;;;8.07;3.08;;;12.00;99.90;;;;;;7399931;19;19921;-79
2023/05/04 09:12:52;;;;;;;6.88;3.42;;;12.20;99.90;;;;;;7400655;19;19922;-79
2023/05/04 09:15:22;;;;;;;6.35;3.00;;;12.20;99.90;;;;;;7400184;19;19915;-80
2023/05/04 09:17:59;;;;;;;7.15;3.17;;;12.20;99.90;;;;;;7399609;19;19926;-81
2023/05/04 09:20:29;;;;;;;5.95;2.97;;;12.30;99.90;;;;;;7400666;19;20330;-79
2023/05/04 09:23:08;;;;;;;6.43;3.95;;;12.40;99.90;;;;;;7400698;19;19960;-80
2023/05/04 09:25:48;;;;;;;9.60;3.67;;;12.30;99.90;;;;;;7400098;19;19919;-79
2023/05/04 09:28:18;;;;;;;5.70;3.15;;;12.60;99.90;;;;;;7398971;19;19926;-81
2023/05/04 09:30:48;;;;;;;5.70;2.90;;;12.60;99.90;;;;;;7401566;19;19937;-80
2023/05/04 09:33:17;;;;;;;7.97;4.20;;;12.70;99.90;;;;;;7401383;19;20453;-80
2023/05/04 09:35:46;;;;;;;6.03;3.25;;;12.80;99.90;;;;;;7399326;19;20002;-80
2023/05/04 09:38:26;;;;;;;5.90;3.15;;;13.00;99.90;;;;;;7400267;19;19925;-80
2023/05/04 09:40:55;;;;;;;8.15;3.50;;;13.00;99.90;;;;;;7399860;19;19932;-80
2023/05/04 09:43:25;;;;;;;6.18;3.30;;;13.10;99.90;;;;;;7398549;19;19918;-80
2023/05/04 09:45:54;;;;;;;8.50;4.25;;;13.20;99.90;;;;;;7401361;19;19929;-80
2023/05/04 09:48:24;;;;;;;7.85;4.03;;;13.30;99.90;;;;;;7399492;19;19995;-80
2023/05/04 09:50:54;;;;;;;7.30;3.28;;;13.30;99.90;;;;;;7399452;19;20373;-80
2023/05/04 09:53:28;;;;;;;6.70;2.75;;;13.40;99.90;;;;;;7397967;19;19961;-79
2023/05/04 09:56:10;;;;;;;7.60;3.58;;;13.50;99.90;;;;;;7406841;19;19937;-79
2023/05/04 09:58:39;;;;;;;4.35;3.00;;;13.50;99.90;;;;;;7407537;19;19932;-80
2023/05/04 10:01:08;;;;;;;4.65;3.17;;;13.70;99.90;;;;;;7404483;19;19925;-79
2023/05/04 10:03:37;;;;;;;4.47;2.88;;;13.90;99.90;;;;;;7406431;19;19922;-80
2023/05/04 10:06:07;;;;;;;6.40;3.53;;;13.80;99.90;;;;;;7405995;19;19922;-80
2023/05/04 10:08:40;;;;;;;6.35;3.28;;;14.00;99.90;;;;;;7407267;19;19915;-79
2023/05/04 10:11:11;;;;;;;9.07;3.58;;;14.20;99.90;;;;;;7402917;19;19942;-79
2023/05/04 10:13:41;;;;;;;6.40;3.17;;;14.20;99.90;;;;;;7400567;19;19918;-73
2023/05/04 10:16:23;;;;;;;7.90;3.25;;;14.40;99.90;;;;;;7403568;19;20455;-74
2023/05/04 10:19:29;;;;;;;4.60;3.40;;;14.40;99.90;;;;;;7404355;19;19925;-73
2023/05/04 10:22:10;;;;;;;14.70;4.10;;;14.50;99.90;;;;;;7396991;19;19922;-74
2023/05/04 10:25:03;;;;;;;7.75;3.30;;;14.50;99.90;;;;;;7401414;19;20565;-76
2023/05/04 10:27:59;;;;;;;8.77;3.33;;;14.60;99.90;;;;;;7400788;19;19937;-75
2023/05/04 10:30:28;;;;;;;6.68;3.85;;;14.50;99.90;;;;;;7404528;19;20287;-76
2023/05/04 10:32:57;;;;;;;8.95;2.88;;;14.60;99.90;;;;;;7404142;19;20321;-76
2023/05/04 10:35:27;;;;;;;5.68;2.97;;;14.60;99.90;;;;;;7404369;19;19919;-75
2023/05/04 10:37:57;;;;;;;9.07;3.65;;;14.70;99.90;;;;;;7404935;19;19969;-75
2023/05/04 10:40:40;;;;;;;7.75;2.97;;;14.70;99.90;;;;;;7404846;19;20388;-75
2023/05/04 10:43:12;;;;;;;6.70;3.17;;;14.90;99.90;;;;;;7402962;19;19930;-75
2023/05/04 10:45:41;;;;;;;5.15;3.00;;;15.10;99.90;;;;;;7401621;19;19957;-76
2023/05/04 10:48:11;;;;;;;6.00;2.80;;;15.10;99.90;;;;;;7405407;19;19929;-75
2023/05/04 10:50:45;;;;;;;7.03;3.13;;;15.30;99.90;;;;;;7404795;19;19931;-76
2023/05/04 10:53:14;;;;;;;6.00;3.50;;;15.40;99.90;;;;;;7400583;19;19918;-75
2023/05/04 10:55:47;;;;;;;7.72;3.60;;;15.50;99.90;;;;;;7403208;19;19941;-75
2023/05/04 10:58:20;;;;;;;4.15;3.05;;;15.50;99.90;;;;;;7404177;19;19946;-76
2023/05/04 11:00:50;;;;;;;8.75;3.40;;;15.60;99.90;;;;;;7403247;19;19923;-76
2023/05/04 11:03:20;;;;;;;6.53;3.67;;;15.60;99.90;;;;;;7403600;19;20410;-75
2023/05/04 11:05:53;;;;;;;5.93;3.25;;;15.60;99.90;;;;;;7399183;19;20340;-79
2023/05/04 11:08:23;;;;;;;6.63;3.13;;;15.60;99.90;;;;;;7406034;19;19919;-78
2023/05/04 11:11:05;;;;;;;3.90;3.15;;;14.80;99.90;;;;;;7402393;19;19975;-80
2023/05/04 11:13:36;;;;;;;6.28;4.05;;;15.50;99.90;;;;;;7404194;19;19923;-80
2023/05/04 11:16:05;;;;;;;5.30;3.40;;;15.60;99.90;;;;;;7403526;19;19914;-76
2023/05/04 11:18:36;;;;;;;8.50;3.88;;;15.70;99.90;;;;;;7402241;19;19925;-78
2023/05/04 11:21:05;;;;;;;5.38;3.40;;;15.70;99.90;;;;;;7403977;19;19915;-78
2023/05/04 11:23:35;;;;;;;6.75;3.53;;;15.90;99.90;;;;;;7404316;19;20411;-77
2023/05/04 11:26:11;;;;;;;8.10;3.40;;;16.10;99.90;;;;;;7402844;19;19958;-78
2023/05/04 11:28:40;;;;;;;4.65;2.60;;;16.10;99.90;;;;;;7399656;19;19933;-79
2023/05/04 11:31:15;;;;;;;5.93;3.22;;;16.30;99.90;;;;;;7400881;19;20368;-78
2023/05/04 11:33:49;;;;;;;8.82;2.92;;;16.60;99.90;;;;;;7401634;19;19923;-79
2023/05/04 11:36:18;;;;;;;5.80;3.58;;;16.40;99.90;;;;;;7401291;19;20051;-79
2023/05/04 11:38:47;;;;;;;5.88;3.10;;;16.80;99.90;;;;;;7401666;19;20360;-79
2023/05/04 11:41:19;;;;;;;6.15;2.92;;;16.80;99.90;;;;;;7402928;19;19922;-79
2023/05/04 11:43:49;;;;;;;6.95;3.05;;;16.80;99.90;;;;;;7402998;19;20374;-78
2023/05/04 11:46:18;;;;;;;4.47;2.65;;;17.00;99.90;;;;;;7403498;19;19926;-79
2023/05/04 11:48:47;;;;;;;6.63;3.10;;;17.00;99.90;;;;;;7403149;19;19915;-80
2023/05/04 11:51:16;;;;;;;4.32;3.10;;;17.10;99.90;;;;;;7403592;19;20253;-79
2023/05/04 11:53:45;;;;;;;5.28;3.10;;;17.10;99.90;;;;;;7401135;19;19928;-78
2023/05/04 11:56:14;;;;;;;7.25;3.15;;;17.30;99.90;;;;;;7402164;19;19923;-79
2023/05/04 11:58:46;;;;;;;4.38;3.20;;;17.00;99.90;;;;;;7403058;19;20336;-78
2023/05/04 12:01:16;;;;;;;4.43;2.70;;;17.20;99.90;;;;;;7400961;19;19948;-79
2023/05/04 12:03:47;;;;;;;5.53;3.22;;;17.10;99.90;;;;;;7403902;19;19950;-79
2023/05/04 12:06:16;;;;;;;5.80;3.03;;;17.30;99.90;;;;;;7402882;19;19925;-79
2023/05/04 12:08:44;;;;;;;4.45;2.80;;;17.40;99.90;;;;;;7403072;19;19935;-79
2023/05/04 12:11:15;;;;;;;7.10;2.80;;;17.60;99.90;;;;;;7400129;19;19922;-79
2023/05/04 12:13:47;;;;;;;7.50;3.25;;;17.60;99.90;;;;;;7400606;19;19986;-79
2023/05/04 12:16:17;;;;;;;7.00;2.78;;;17.80;99.90;;;;;;7401667;19;19929;-79
2023/05/04 12:18:47;;;;;;;7.28;3.00;;;18.00;99.90;;;;;;7402223;19;19918;-79
2023/05/04 12:21:18;;;;;;;4.53;2.97;;;18.10;99.90;;;;;;7403073;19;20481;-79
2023/05/04 12:23:49;;;;;;;5.65;3.00;;;18.10;99.90;;;;;;7400436;19;19914;-79
2023/05/04 12:26:18;;;;;;;7.03;2.90;;;18.10;99.90;;;;;;7403025;19;19918;-79
2023/05/04 12:28:50;;;;;;;5.65;3.28;;;18.30;99.90;;;;;;7405107;19;19953;-79
2023/05/04 12:31:19;;;;;;;7.15;2.90;;;18.30;99.90;;;;;;7403851;19;20344;-80
2023/05/04 12:33:48;;;;;;;7.43;2.83;;;18.20;99.90;;;;;;7401617;19;19934;-79
2023/05/04 12:36:18;;;;;;;5.00;3.05;;;18.30;99.90;;;;;;7405033;19;19927;-79
2023/05/04 12:38:47;;;;;;;5.95;2.97;;;18.30;99.90;;;;;;7402263;19;19934;-79
2023/05/04 12:41:16;;;;;;;3.13;2.80;;;18.50;99.90;;;;;;7402290;19;19923;-79
2023/05/04 12:43:45;;;;;;;4.10;2.63;;;18.40;99.90;;;;;;7401753;19;19923;-79
2023/05/04 12:46:20;;;;;;;6.78;3.00;;;18.40;99.90;;;;;;7399735;19;19928;-79
2023/05/04 12:48:49;;;;;;;5.35;2.38;;;18.50;99.90;;;;;;7404382;19;20042;-80
2023/05/04 12:51:18;;;;;;;4.15;2.72;;;18.50;99.90;;;;;;7404343;19;20693;-80
2023/05/04 12:53:46;;;;;;;6.03;3.13;;;18.60;99.90;;;;;;7401301;19;19923;-80
2023/05/04 12:56:15;;;;;;;5.53;2.58;;;18.60;99.90;;;;;;7403914;19;19935;-80
2023/05/04 12:58:44;;;;;;;7.10;3.03;;;18.80;99.90;;;;;;7403028;19;19918;-80
2023/05/04 13:01:16;;;;;;;4.10;2.80;;;18.80;99.90;;;;;;7402436;19;19982;-80
2023/05/04 13:03:45;;;;;;;5.82;2.78;;;18.80;99.90;;;;;;7402583;19;19934;-79
2023/05/04 13:06:14;;;;;;;8.07;3.00;;;18.90;99.90;;;;;;7399511;19;19922;-80
2023/05/04 13:08:43;;;;;;;4.22;2.85;;;18.90;99.90;;;;;;7401553;19;20344;-79